sensor_id;sensor_type;location;lat;lon;timestamp;P1;durP1;ratioP1;P2;durP2;ratioP2
69894;SDS011;57172;52.034;5.090;2022-10-17T00:00:35;13.18;;;6.53;;
69894;SDS011;57172;52.034;5.090;2022-10-17T00:03:02;13.38;;;6.72;;
69894;SDS011;57172;52.034;5.090;2022-10-17T00:05:29;12.70;;;6.63;;
69894;SDS011;57172;52.034;5.090;2022-10-17T00:07:56;11.10;;;6.90;;
69894;SDS011;57172;52.034;5.090;2022-10-17T00:10:23;14.63;;;7.05;;
69894;SDS011;57172;52.034;5.090;2022-10-17T00:12:50;15.00;;;6.78;;
69894;SDS011;57172;52.034;5.090;2022-10-17T00:15:18;14.70;;;7.38;;
69894;SDS011;57172;52.034;5.090;2022-10-17T00:17:46;12.60;;;7.10;;
69894;SDS011;57172;52.034;5.090;2022-10-17T00:20:13;11.80;;;6.72;;
69894;SDS011;57172;52.034;5.090;2022-10-17T00:22:40;12.23;;;7.18;;
69894;SDS011;57172;52.034;5.090;2022-10-17T00:25:08;11.02;;;6.63;;
69894;SDS011;57172;52.034;5.090;2022-10-17T00:27:36;13.38;;;7.10;;
69894;SDS011;57172;52.034;5.090;2022-10-17T00:30:05;13.07;;;7.43;;
69894;SDS011;57172;52.034;5.090;2022-10-17T00:32:33;11.55;;;7.35;;
69894;SDS011;57172;52.034;5.090;2022-10-17T00:35:00;14.40;;;7.78;;
69894;SDS011;57172;52.034;5.090;2022-10-17T00:37:28;11.90;;;7.50;;
69894;SDS011;57172;52.034;5.090;2022-10-17T00:39:56;14.95;;;8.07;;
69894;SDS011;57172;52.034;5.090;2022-10-17T00:42:23;15.17;;;8.57;;
69894;SDS011;57172;52.034;5.090;2022-10-17T00:44:59;13.48;;;7.90;;
69894;SDS011;57172;52.034;5.090;2022-10-17T00:47:29;14.18;;;7.85;;
69894;SDS011;57172;52.034;5.090;2022-10-17T00:49:57;14.30;;;8.38;;
69894;SDS011;57172;52.034;5.090;2022-10-17T00:52:26;15.25;;;8.18;;
69894;SDS011;57172;52.034;5.090;2022-10-17T00:55:07;15.97;;;8.37;;
69894;SDS011;57172;52.034;5.090;2022-10-17T00:57:40;16.00;;;8.25;;
69894;SDS011;57172;52.034;5.090;2022-10-17T01:00:08;15.23;;;8.20;;
69894;SDS011;57172;52.034;5.090;2022-10-17T01:02:36;17.60;;;8.15;;
69894;SDS011;57172;52.034;5.090;2022-10-17T01:05:03;15.18;;;8.32;;
69894;SDS011;57172;52.034;5.090;2022-10-17T01:07:33;14.57;;;8.40;;
69894;SDS011;57172;52.034;5.090;2022-10-17T01:10:03;15.02;;;8.52;;
69894;SDS011;57172;52.034;5.090;2022-10-17T01:13:35;13.90;;;8.60;;
69894;SDS011;57172;52.034;5.090;2022-10-17T01:18:16;13.10;;;8.25;;
69894;SDS011;57172;52.034;5.090;2022-10-17T01:31:58;15.90;;;8.77;;
69894;SDS011;57172;52.034;5.090;2022-10-17T01:34:31;13.80;;;8.30;;
69894;SDS011;57172;52.034;5.090;2022-10-17T01:37:02;14.52;;;8.80;;
69894;SDS011;57172;52.034;5.090;2022-10-17T01:39:44;15.57;;;8.88;;
69894;SDS011;57172;52.034;5.090;2022-10-17T01:47:27;14.90;;;8.60;;
69894;SDS011;57172;52.034;5.090;2022-10-17T01:50:34;17.33;;;8.52;;
69894;SDS011;57172;52.034;5.090;2022-10-17T01:53:09;14.07;;;8.55;;
69894;SDS011;57172;52.034;5.090;2022-10-17T01:55:44;16.50;;;8.90;;
69894;SDS011;57172;52.034;5.090;2022-10-17T01:58:19;14.98;;;9.27;;
69894;SDS011;57172;52.034;5.090;2022-10-17T02:00:51;15.37;;;8.87;;
69894;SDS011;57172;52.034;5.090;2022-10-17T02:03:21;16.63;;;9.05;;
69894;SDS011;57172;52.034;5.090;2022-10-17T02:05:50;17.60;;;9.68;;
69894;SDS011;57172;52.034;5.090;2022-10-17T02:08:24;16.35;;;9.82;;
69894;SDS011;57172;52.034;5.090;2022-10-17T02:10:54;19.00;;;9.25;;
69894;SDS011;57172;52.034;5.090;2022-10-17T02:16:00;16.38;;;9.60;;
69894;SDS011;57172;52.034;5.090;2022-10-17T02:24:29;17.67;;;9.43;;
69894;SDS011;57172;52.034;5.090;2022-10-17T02:27:25;17.17;;;9.33;;
69894;SDS011;57172;52.034;5.090;2022-10-17T02:29:57;18.60;;;9.35;;
69894;SDS011;57172;52.034;5.090;2022-10-17T02:35:24;13.77;;;8.38;;
69894;SDS011;57172;52.034;5.090;2022-10-17T02:37:54;17.10;;;9.27;;
69894;SDS011;57172;52.034;5.090;2022-10-17T02:40:22;15.20;;;9.20;;
69894;SDS011;57172;52.034;5.090;2022-10-17T02:42:51;14.35;;;9.20;;
69894;SDS011;57172;52.034;5.090;2022-10-17T02:45:19;14.57;;;9.13;;
69894;SDS011;57172;52.034;5.090;2022-10-17T02:53:29;14.70;;;8.63;;
69894;SDS011;57172;52.034;5.090;2022-10-17T02:56:14;15.45;;;9.23;;
69894;SDS011;57172;52.034;5.090;2022-10-17T02:58:45;15.70;;;8.80;;
69894;SDS011;57172;52.034;5.090;2022-10-17T03:01:16;14.75;;;8.98;;
69894;SDS011;57172;52.034;5.090;2022-10-17T03:03:44;15.70;;;8.70;;
69894;SDS011;57172;52.034;5.090;2022-10-17T03:06:11;14.53;;;9.13;;
69894;SDS011;57172;52.034;5.090;2022-10-17T03:08:38;16.02;;;9.48;;
69894;SDS011;57172;52.034;5.090;2022-10-17T03:11:05;16.80;;;9.15;;
69894;SDS011;57172;52.034;5.090;2022-10-17T03:13:32;14.02;;;9.20;;
69894;SDS011;57172;52.034;5.090;2022-10-17T03:16:04;13.23;;;8.50;;
69894;SDS011;57172;52.034;5.090;2022-10-17T03:18:31;15.97;;;9.13;;
69894;SDS011;57172;52.034;5.090;2022-10-17T03:20:59;14.10;;;9.07;;
69894;SDS011;57172;52.034;5.090;2022-10-17T03:23:26;18.30;;;9.38;;
69894;SDS011;57172;52.034;5.090;2022-10-17T03:25:54;16.58;;;8.70;;
69894;SDS011;57172;52.034;5.090;2022-10-17T03:28:20;14.15;;;7.90;;
69894;SDS011;57172;52.034;5.090;2022-10-17T03:30:47;13.20;;;7.77;;
69894;SDS011;57172;52.034;5.090;2022-10-17T03:33:14;13.98;;;8.30;;
69894;SDS011;57172;52.034;5.090;2022-10-17T03:35:41;14.88;;;8.63;;
69894;SDS011;57172;52.034;5.090;2022-10-17T03:38:08;17.17;;;8.32;;
69894;SDS011;57172;52.034;5.090;2022-10-17T03:40:35;12.82;;;8.30;;
69894;SDS011;57172;52.034;5.090;2022-10-17T03:43:02;14.60;;;8.43;;
69894;SDS011;57172;52.034;5.090;2022-10-17T03:45:29;14.88;;;8.15;;
69894;SDS011;57172;52.034;5.090;2022-10-17T03:47:57;14.88;;;8.32;;
69894;SDS011;57172;52.034;5.090;2022-10-17T03:50:24;12.32;;;8.30;;
69894;SDS011;57172;52.034;5.090;2022-10-17T03:52:51;14.98;;;8.63;;
69894;SDS011;57172;52.034;5.090;2022-10-17T03:55:18;14.83;;;9.07;;
69894;SDS011;57172;52.034;5.090;2022-10-17T03:57:45;15.65;;;8.40;;
69894;SDS011;57172;52.034;5.090;2022-10-17T04:00:14;13.18;;;8.00;;
69894;SDS011;57172;52.034;5.090;2022-10-17T04:02:48;12.82;;;7.28;;
69894;SDS011;57172;52.034;5.090;2022-10-17T04:05:17;15.05;;;8.10;;
69894;SDS011;57172;52.034;5.090;2022-10-17T04:07:44;13.70;;;8.27;;
69894;SDS011;57172;52.034;5.090;2022-10-17T04:10:13;12.73;;;7.80;;
69894;SDS011;57172;52.034;5.090;2022-10-17T04:12:40;14.30;;;8.27;;
69894;SDS011;57172;52.034;5.090;2022-10-17T04:15:08;17.55;;;7.60;;
69894;SDS011;57172;52.034;5.090;2022-10-17T04:17:36;14.05;;;8.07;;
69894;SDS011;57172;52.034;5.090;2022-10-17T04:20:05;12.50;;;7.63;;
69894;SDS011;57172;52.034;5.090;2022-10-17T04:22:32;14.82;;;7.88;;
69894;SDS011;57172;52.034;5.090;2022-10-17T04:25:00;14.93;;;8.40;;
69894;SDS011;57172;52.034;5.090;2022-10-17T04:27:32;15.55;;;7.68;;
69894;SDS011;57172;52.034;5.090;2022-10-17T04:29:59;16.27;;;7.85;;
69894;SDS011;57172;52.034;5.090;2022-10-17T04:32:28;12.87;;;8.13;;
69894;SDS011;57172;52.034;5.090;2022-10-17T04:35:07;13.82;;;8.13;;
69894;SDS011;57172;52.034;5.090;2022-10-17T04:37:36;12.73;;;8.30;;
69894;SDS011;57172;52.034;5.090;2022-10-17T04:40:09;14.23;;;8.20;;
69894;SDS011;57172;52.034;5.090;2022-10-17T04:42:36;16.58;;;8.70;;
69894;SDS011;57172;52.034;5.090;2022-10-17T04:45:03;13.97;;;7.60;;
69894;SDS011;57172;52.034;5.090;2022-10-17T04:47:31;16.15;;;8.55;;
69894;SDS011;57172;52.034;5.090;2022-10-17T04:49:58;14.38;;;7.95;;
69894;SDS011;57172;52.034;5.090;2022-10-17T04:52:25;13.05;;;8.10;;
69894;SDS011;57172;52.034;5.090;2022-10-17T04:54:53;14.43;;;7.75;;
69894;SDS011;57172;52.034;5.090;2022-10-17T04:57:20;12.13;;;7.77;;
69894;SDS011;57172;52.034;5.090;2022-10-17T04:59:59;13.82;;;8.10;;
69894;SDS011;57172;52.034;5.090;2022-10-17T05:02:47;15.65;;;7.85;;
69894;SDS011;57172;52.034;5.090;2022-10-17T05:05:14;13.93;;;8.07;;
69894;SDS011;57172;52.034;5.090;2022-10-17T05:07:43;14.10;;;8.15;;
69894;SDS011;57172;52.034;5.090;2022-10-17T05:10:17;17.90;;;8.60;;
69894;SDS011;57172;52.034;5.090;2022-10-17T05:12:46;16.27;;;8.75;;
69894;SDS011;57172;52.034;5.090;2022-10-17T05:15:16;31.10;;;16.42;;
69894;SDS011;57172;52.034;5.090;2022-10-17T05:17:43;17.02;;;9.50;;
69894;SDS011;57172;52.034;5.090;2022-10-17T05:20:10;16.35;;;9.40;;
69894;SDS011;57172;52.034;5.090;2022-10-17T05:22:37;15.33;;;8.47;;
69894;SDS011;57172;52.034;5.090;2022-10-17T05:25:08;15.75;;;8.38;;
69894;SDS011;57172;52.034;5.090;2022-10-17T05:27:35;14.32;;;7.82;;
69894;SDS011;57172;52.034;5.090;2022-10-17T05:30:03;17.50;;;7.93;;
69894;SDS011;57172;52.034;5.090;2022-10-17T05:32:33;14.45;;;8.18;;
69894;SDS011;57172;52.034;5.090;2022-10-17T05:35:00;14.60;;;7.90;;
69894;SDS011;57172;52.034;5.090;2022-10-17T05:37:30;13.70;;;7.30;;
69894;SDS011;57172;52.034;5.090;2022-10-17T05:39:58;13.80;;;7.93;;
69894;SDS011;57172;52.034;5.090;2022-10-17T05:42:25;14.50;;;8.57;;
69894;SDS011;57172;52.034;5.090;2022-10-17T05:44:53;13.50;;;8.10;;
69894;SDS011;57172;52.034;5.090;2022-10-17T05:47:19;14.83;;;8.93;;
69894;SDS011;57172;52.034;5.090;2022-10-17T05:49:47;13.50;;;8.45;;
69894;SDS011;57172;52.034;5.090;2022-10-17T05:52:23;16.20;;;8.82;;
69894;SDS011;57172;52.034;5.090;2022-10-17T05:55:11;14.23;;;8.75;;
69894;SDS011;57172;52.034;5.090;2022-10-17T05:57:38;14.63;;;8.52;;
69894;SDS011;57172;52.034;5.090;2022-10-17T06:00:09;12.93;;;7.80;;
69894;SDS011;57172;52.034;5.090;2022-10-17T06:02:40;14.52;;;9.00;;
69894;SDS011;57172;52.034;5.090;2022-10-17T06:05:09;11.80;;;7.70;;
69894;SDS011;57172;52.034;5.090;2022-10-17T06:07:36;16.25;;;7.10;;
69894;SDS011;57172;52.034;5.090;2022-10-17T06:10:04;15.00;;;8.00;;
69894;SDS011;57172;52.034;5.090;2022-10-17T06:12:32;13.47;;;7.80;;
69894;SDS011;57172;52.034;5.090;2022-10-17T06:14:59;16.30;;;7.80;;
69894;SDS011;57172;52.034;5.090;2022-10-17T06:17:26;12.43;;;7.40;;
69894;SDS011;57172;52.034;5.090;2022-10-17T06:19:55;17.85;;;6.35;;
69894;SDS011;57172;52.034;5.090;2022-10-17T06:22:23;12.60;;;8.18;;
69894;SDS011;57172;52.034;5.090;2022-10-17T06:24:50;15.50;;;8.33;;
69894;SDS011;57172;52.034;5.090;2022-10-17T06:27:19;13.93;;;8.05;;
69894;SDS011;57172;52.034;5.090;2022-10-17T06:29:46;20.55;;;8.23;;
69894;SDS011;57172;52.034;5.090;2022-10-17T06:32:15;14.00;;;8.02;;
69894;SDS011;57172;52.034;5.090;2022-10-17T06:34:44;15.52;;;8.05;;
69894;SDS011;57172;52.034;5.090;2022-10-17T06:37:12;13.67;;;8.10;;
69894;SDS011;57172;52.034;5.090;2022-10-17T06:39:40;13.38;;;7.45;;
69894;SDS011;57172;52.034;5.090;2022-10-17T06:42:19;13.45;;;7.68;;
69894;SDS011;57172;52.034;5.090;2022-10-17T06:44:54;14.25;;;7.68;;
69894;SDS011;57172;52.034;5.090;2022-10-17T06:47:50;16.15;;;7.65;;
69894;SDS011;57172;52.034;5.090;2022-10-17T06:50:37;12.20;;;7.70;;
69894;SDS011;57172;52.034;5.090;2022-10-17T06:53:16;14.73;;;8.07;;
69894;SDS011;57172;52.034;5.090;2022-10-17T06:56:02;15.20;;;8.48;;
69894;SDS011;57172;52.034;5.090;2022-10-17T06:58:56;13.73;;;7.50;;
69894;SDS011;57172;52.034;5.090;2022-10-17T07:01:34;14.95;;;7.25;;
69894;SDS011;57172;52.034;5.090;2022-10-17T07:04:02;15.67;;;7.07;;
69894;SDS011;57172;52.034;5.090;2022-10-17T07:06:30;12.35;;;7.25;;
69894;SDS011;57172;52.034;5.090;2022-10-17T07:09:02;12.23;;;7.75;;
69894;SDS011;57172;52.034;5.090;2022-10-17T07:11:34;12.80;;;6.82;;
69894;SDS011;57172;52.034;5.090;2022-10-17T07:14:01;13.30;;;6.78;;
69894;SDS011;57172;52.034;5.090;2022-10-17T07:16:28;12.93;;;7.60;;
69894;SDS011;57172;52.034;5.090;2022-10-17T07:19:02;12.68;;;7.15;;
69894;SDS011;57172;52.034;5.090;2022-10-17T07:21:33;15.27;;;6.63;;
69894;SDS011;57172;52.034;5.090;2022-10-17T07:24:05;9.45;;;6.53;;
69894;SDS011;57172;52.034;5.090;2022-10-17T07:26:32;14.25;;;7.25;;
69894;SDS011;57172;52.034;5.090;2022-10-17T07:28:59;11.43;;;6.67;;
69894;SDS011;57172;52.034;5.090;2022-10-17T07:31:34;9.57;;;6.05;;
69894;SDS011;57172;52.034;5.090;2022-10-17T07:34:01;12.55;;;6.00;;
69894;SDS011;57172;52.034;5.090;2022-10-17T07:36:28;16.35;;;6.50;;
69894;SDS011;57172;52.034;5.090;2022-10-17T07:38:57;11.65;;;6.57;;
69894;SDS011;57172;52.034;5.090;2022-10-17T07:41:24;11.83;;;6.27;;
69894;SDS011;57172;52.034;5.090;2022-10-17T07:43:51;12.07;;;6.57;;
69894;SDS011;57172;52.034;5.090;2022-10-17T07:46:23;13.93;;;6.35;;
69894;SDS011;57172;52.034;5.090;2022-10-17T07:48:50;10.70;;;5.93;;
69894;SDS011;57172;52.034;5.090;2022-10-17T07:51:19;10.50;;;6.07;;
69894;SDS011;57172;52.034;5.090;2022-10-17T07:53:47;11.20;;;6.23;;
69894;SDS011;57172;52.034;5.090;2022-10-17T07:56:14;11.45;;;6.70;;
69894;SDS011;57172;52.034;5.090;2022-10-17T07:58:41;13.57;;;6.57;;
69894;SDS011;57172;52.034;5.090;2022-10-17T08:01:08;11.85;;;6.55;;
69894;SDS011;57172;52.034;5.090;2022-10-17T08:03:42;13.45;;;6.82;;
69894;SDS011;57172;52.034;5.090;2022-10-17T08:06:10;11.27;;;7.20;;
69894;SDS011;57172;52.034;5.090;2022-10-17T08:08:37;10.50;;;5.55;;
69894;SDS011;57172;52.034;5.090;2022-10-17T08:11:04;17.83;;;6.97;;
69894;SDS011;57172;52.034;5.090;2022-10-17T08:13:33;14.57;;;6.93;;
69894;SDS011;57172;52.034;5.090;2022-10-17T08:16:02;19.02;;;8.68;;
69894;SDS011;57172;52.034;5.090;2022-10-17T08:18:33;17.70;;;8.20;;
69894;SDS011;57172;52.034;5.090;2022-10-17T08:21:01;15.20;;;7.97;;
69894;SDS011;57172;52.034;5.090;2022-10-17T08:23:31;15.38;;;8.50;;
69894;SDS011;57172;52.034;5.090;2022-10-17T08:25:58;14.95;;;8.40;;
69894;SDS011;57172;52.034;5.090;2022-10-17T08:28:26;17.77;;;8.02;;
69894;SDS011;57172;52.034;5.090;2022-10-17T08:31:00;15.17;;;8.23;;
69894;SDS011;57172;52.034;5.090;2022-10-17T08:33:31;16.23;;;8.52;;
69894;SDS011;57172;52.034;5.090;2022-10-17T08:35:59;14.27;;;8.35;;
69894;SDS011;57172;52.034;5.090;2022-10-17T08:38:29;14.35;;;8.27;;
69894;SDS011;57172;52.034;5.090;2022-10-17T08:41:11;14.55;;;8.18;;
69894;SDS011;57172;52.034;5.090;2022-10-17T08:43:44;19.43;;;8.70;;
69894;SDS011;57172;52.034;5.090;2022-10-17T08:46:33;13.68;;;7.65;;
69894;SDS011;57172;52.034;5.090;2022-10-17T08:49:05;17.67;;;8.57;;
69894;SDS011;57172;52.034;5.090;2022-10-17T08:51:41;15.35;;;8.40;;
69894;SDS011;57172;52.034;5.090;2022-10-17T08:54:57;15.05;;;8.50;;
69894;SDS011;57172;52.034;5.090;2022-10-17T08:57:11;19.13;;;8.27;;
69894;SDS011;57172;52.034;5.090;2022-10-17T08:59:41;16.48;;;8.70;;
69894;SDS011;57172;52.034;5.090;2022-10-17T09:07:36;18.75;;;8.98;;
69894;SDS011;57172;52.034;5.090;2022-10-17T09:18:16;16.48;;;8.48;;
69894;SDS011;57172;52.034;5.090;2022-10-17T09:20:50;19.17;;;9.40;;
69894;SDS011;57172;52.034;5.090;2022-10-17T09:23:24;17.50;;;8.90;;
69894;SDS011;57172;52.034;5.090;2022-10-17T09:26:07;14.63;;;7.68;;
69894;SDS011;57172;52.034;5.090;2022-10-17T09:28:37;14.52;;;7.97;;
69894;SDS011;57172;52.034;5.090;2022-10-17T09:31:08;17.98;;;8.82;;
69894;SDS011;57172;52.034;5.090;2022-10-17T09:33:48;17.33;;;9.20;;
69894;SDS011;57172;52.034;5.090;2022-10-17T09:36:33;18.47;;;8.93;;
69894;SDS011;57172;52.034;5.090;2022-10-17T09:41:43;17.23;;;9.00;;
69894;SDS011;57172;52.034;5.090;2022-10-17T09:47:00;17.63;;;8.60;;
69894;SDS011;57172;52.034;5.090;2022-10-17T09:49:38;19.43;;;9.10;;
69894;SDS011;57172;52.034;5.090;2022-10-17T09:52:11;18.15;;;9.10;;
69894;SDS011;57172;52.034;5.090;2022-10-17T09:57:17;16.83;;;9.15;;
69894;SDS011;57172;52.034;5.090;2022-10-17T09:59:46;19.85;;;9.30;;
69894;SDS011;57172;52.034;5.090;2022-10-17T10:02:25;14.73;;;8.63;;
69894;SDS011;57172;52.034;5.090;2022-10-17T10:04:58;18.98;;;9.35;;
69894;SDS011;57172;52.034;5.090;2022-10-17T10:07:32;15.45;;;9.15;;
69894;SDS011;57172;52.034;5.090;2022-10-17T10:10:01;15.57;;;8.70;;
69894;SDS011;57172;52.034;5.090;2022-10-17T10:12:32;15.05;;;9.07;;
69894;SDS011;57172;52.034;5.090;2022-10-17T10:17:59;16.52;;;9.35;;
69894;SDS011;57172;52.034;5.090;2022-10-17T10:20:31;17.08;;;8.60;;
69894;SDS011;57172;52.034;5.090;2022-10-17T10:23:04;13.63;;;8.15;;
69894;SDS011;57172;52.034;5.090;2022-10-17T10:25:31;15.48;;;8.70;;
69894;SDS011;57172;52.034;5.090;2022-10-17T10:28:00;11.20;;;7.03;;
69894;SDS011;57172;52.034;5.090;2022-10-17T10:30:28;15.05;;;8.35;;
69894;SDS011;57172;52.034;5.090;2022-10-17T10:33:02;15.50;;;8.70;;
69894;SDS011;57172;52.034;5.090;2022-10-17T10:35:33;12.40;;;7.78;;
69894;SDS011;57172;52.034;5.090;2022-10-17T10:38:03;13.70;;;8.40;;
69894;SDS011;57172;52.034;5.090;2022-10-17T10:40:54;15.13;;;8.17;;
69894;SDS011;57172;52.034;5.090;2022-10-17T10:48:59;11.30;;;6.10;;
69894;SDS011;57172;52.034;5.090;2022-10-17T10:51:43;13.55;;;8.20;;
69894;SDS011;57172;52.034;5.090;2022-10-17T10:56:57;13.10;;;8.35;;
69894;SDS011;57172;52.034;5.090;2022-10-17T10:59:36;13.73;;;8.20;;
69894;SDS011;57172;52.034;5.090;2022-10-17T11:02:12;13.32;;;7.72;;
69894;SDS011;57172;52.034;5.090;2022-10-17T11:04:55;12.63;;;7.72;;
69894;SDS011;57172;52.034;5.090;2022-10-17T11:07:50;11.83;;;7.50;;
69894;SDS011;57172;52.034;5.090;2022-10-17T11:13:00;12.85;;;7.93;;
69894;SDS011;57172;52.034;5.090;2022-10-17T11:20:55;11.23;;;7.10;;
69894;SDS011;57172;52.034;5.090;2022-10-17T11:23:47;12.10;;;7.60;;
69894;SDS011;57172;52.034;5.090;2022-10-17T11:26:37;12.98;;;7.85;;
69894;SDS011;57172;52.034;5.090;2022-10-17T11:29:10;11.98;;;8.10;;
69894;SDS011;57172;52.034;5.090;2022-10-17T11:31:42;17.08;;;7.95;;
69894;SDS011;57172;52.034;5.090;2022-10-17T11:36:47;13.95;;;8.57;;
69894;SDS011;57172;52.034;5.090;2022-10-17T11:39:18;13.55;;;9.27;;
69894;SDS011;57172;52.034;5.090;2022-10-17T11:41:55;12.90;;;9.02;;
69894;SDS011;57172;52.034;5.090;2022-10-17T11:44:36;12.93;;;8.73;;
69894;SDS011;57172;52.034;5.090;2022-10-17T11:49:52;11.57;;;8.05;;
69894;SDS011;57172;52.034;5.090;2022-10-17T11:52:47;15.23;;;9.52;;
69894;SDS011;57172;52.034;5.090;2022-10-17T11:58:15;16.20;;;9.68;;
69894;SDS011;57172;52.034;5.090;2022-10-17T12:06:51;13.43;;;8.02;;
69894;SDS011;57172;52.034;5.090;2022-10-17T12:09:45;9.32;;;5.68;;
69894;SDS011;57172;52.034;5.090;2022-10-17T12:15:45;6.53;;;4.77;;
69894;SDS011;57172;52.034;5.090;2022-10-17T12:17:56;8.73;;;5.20;;
69894;SDS011;57172;52.034;5.090;2022-10-17T12:25:47;7.68;;;4.78;;
69894;SDS011;57172;52.034;5.090;2022-10-17T12:28:16;9.77;;;4.70;;
69894;SDS011;57172;52.034;5.090;2022-10-17T12:30:55;7.97;;;4.85;;
69894;SDS011;57172;52.034;5.090;2022-10-17T12:33:32;8.48;;;4.80;;
69894;SDS011;57172;52.034;5.090;2022-10-17T12:36:35;8.23;;;5.35;;
69894;SDS011;57172;52.034;5.090;2022-10-17T12:46:41;10.05;;;6.40;;
69894;SDS011;57172;52.034;5.090;2022-10-17T12:52:04;11.70;;;7.13;;
69894;SDS011;57172;52.034;5.090;2022-10-17T12:55:08;13.43;;;7.50;;
69894;SDS011;57172;52.034;5.090;2022-10-17T13:02:53;14.43;;;8.27;;
69894;SDS011;57172;52.034;5.090;2022-10-17T13:05:25;13.40;;;8.50;;
69894;SDS011;57172;52.034;5.090;2022-10-17T13:08:01;14.77;;;8.77;;
69894;SDS011;57172;52.034;5.090;2022-10-17T13:10:31;12.52;;;8.40;;
69894;SDS011;57172;52.034;5.090;2022-10-17T13:13:14;13.32;;;9.00;;
69894;SDS011;57172;52.034;5.090;2022-10-17T13:15:46;14.68;;;9.00;;
69894;SDS011;57172;52.034;5.090;2022-10-17T13:18:22;12.38;;;8.88;;
69894;SDS011;57172;52.034;5.090;2022-10-17T13:20:58;12.60;;;8.67;;
69894;SDS011;57172;52.034;5.090;2022-10-17T13:23:34;12.68;;;9.30;;
69894;SDS011;57172;52.034;5.090;2022-10-17T13:26:07;13.23;;;8.93;;
69894;SDS011;57172;52.034;5.090;2022-10-17T13:28:40;12.27;;;8.90;;
69894;SDS011;57172;52.034;5.090;2022-10-17T13:31:28;13.80;;;8.90;;
69894;SDS011;57172;52.034;5.090;2022-10-17T13:34:02;13.43;;;8.33;;
69894;SDS011;57172;52.034;5.090;2022-10-17T13:36:32;12.75;;;8.40;;
69894;SDS011;57172;52.034;5.090;2022-10-17T13:39:04;13.02;;;8.70;;
69894;SDS011;57172;52.034;5.090;2022-10-17T13:41:39;12.73;;;8.30;;
69894;SDS011;57172;52.034;5.090;2022-10-17T13:44:09;12.95;;;8.57;;
69894;SDS011;57172;52.034;5.090;2022-10-17T13:46:40;12.07;;;8.60;;
69894;SDS011;57172;52.034;5.090;2022-10-17T13:49:20;13.80;;;8.60;;
69894;SDS011;57172;52.034;5.090;2022-10-17T13:52:06;11.90;;;8.77;;
69894;SDS011;57172;52.034;5.090;2022-10-17T13:54:45;11.20;;;7.85;;
69894;SDS011;57172;52.034;5.090;2022-10-17T13:57:21;11.80;;;8.23;;
69894;SDS011;57172;52.034;5.090;2022-10-17T14:00:00;10.33;;;7.30;;
69894;SDS011;57172;52.034;5.090;2022-10-17T14:02:40;12.30;;;7.53;;
69894;SDS011;57172;52.034;5.090;2022-10-17T14:05:12;14.10;;;8.18;;
69894;SDS011;57172;52.034;5.090;2022-10-17T14:07:51;12.93;;;7.75;;
69894;SDS011;57172;52.034;5.090;2022-10-17T14:10:42;12.07;;;8.07;;
69894;SDS011;57172;52.034;5.090;2022-10-17T14:13:25;10.03;;;7.60;;
69894;SDS011;57172;52.034;5.090;2022-10-17T14:15:55;12.30;;;8.23;;
69894;SDS011;57172;52.034;5.090;2022-10-17T14:18:28;12.13;;;8.18;;
69894;SDS011;57172;52.034;5.090;2022-10-17T14:21:01;12.82;;;8.35;;
69894;SDS011;57172;52.034;5.090;2022-10-17T14:23:50;12.10;;;8.63;;
69894;SDS011;57172;52.034;5.090;2022-10-17T14:26:22;12.10;;;8.30;;
69894;SDS011;57172;52.034;5.090;2022-10-17T14:29:00;13.50;;;8.35;;
69894;SDS011;57172;52.034;5.090;2022-10-17T14:31:34;15.07;;;8.30;;
69894;SDS011;57172;52.034;5.090;2022-10-17T14:34:02;12.30;;;7.82;;
69894;SDS011;57172;52.034;5.090;2022-10-17T14:36:36;13.93;;;7.40;;
69894;SDS011;57172;52.034;5.090;2022-10-17T14:39:05;9.77;;;7.20;;
69894;SDS011;57172;52.034;5.090;2022-10-17T14:41:42;11.93;;;7.18;;
69894;SDS011;57172;52.034;5.090;2022-10-17T14:44:53;13.98;;;7.50;;
69894;SDS011;57172;52.034;5.090;2022-10-17T14:47:02;10.38;;;6.80;;
69894;SDS011;57172;52.034;5.090;2022-10-17T14:50:01;11.73;;;6.82;;
69894;SDS011;57172;52.034;5.090;2022-10-17T14:52:33;9.93;;;6.77;;
69894;SDS011;57172;52.034;5.090;2022-10-17T14:55:11;12.13;;;7.30;;
69894;SDS011;57172;52.034;5.090;2022-10-17T14:57:51;10.38;;;6.30;;
69894;SDS011;57172;52.034;5.090;2022-10-17T15:00:18;9.82;;;6.80;;
69894;SDS011;57172;52.034;5.090;2022-10-17T15:02:46;13.10;;;6.70;;
69894;SDS011;57172;52.034;5.090;2022-10-17T15:05:14;11.30;;;6.27;;
69894;SDS011;57172;52.034;5.090;2022-10-17T15:07:42;9.13;;;6.20;;
69894;SDS011;57172;52.034;5.090;2022-10-17T15:10:24;9.77;;;5.97;;
69894;SDS011;57172;52.034;5.090;2022-10-17T15:12:54;9.15;;;5.70;;
69894;SDS011;57172;52.034;5.090;2022-10-17T15:15:29;9.80;;;5.90;;
69894;SDS011;57172;52.034;5.090;2022-10-17T15:17:58;8.60;;;5.53;;
69894;SDS011;57172;52.034;5.090;2022-10-17T15:20:25;8.63;;;5.40;;
69894;SDS011;57172;52.034;5.090;2022-10-17T15:22:56;11.13;;;5.70;;
69894;SDS011;57172;52.034;5.090;2022-10-17T15:25:25;11.95;;;5.75;;
69894;SDS011;57172;52.034;5.090;2022-10-17T15:27:53;11.43;;;5.80;;
69894;SDS011;57172;52.034;5.090;2022-10-17T15:30:24;7.60;;;5.20;;
69894;SDS011;57172;52.034;5.090;2022-10-17T15:32:53;10.27;;;5.72;;
69894;SDS011;57172;52.034;5.090;2022-10-17T15:35:20;7.32;;;5.28;;
69894;SDS011;57172;52.034;5.090;2022-10-17T15:37:48;8.13;;;5.28;;
69894;SDS011;57172;52.034;5.090;2022-10-17T15:40:16;10.25;;;5.50;;
69894;SDS011;57172;52.034;5.090;2022-10-17T15:42:48;9.80;;;5.10;;
69894;SDS011;57172;52.034;5.090;2022-10-17T15:45:17;8.05;;;5.00;;
69894;SDS011;57172;52.034;5.090;2022-10-17T15:47:54;9.15;;;5.07;;
69894;SDS011;57172;52.034;5.090;2022-10-17T15:50:30;9.65;;;4.80;;
69894;SDS011;57172;52.034;5.090;2022-10-17T15:52:57;9.48;;;5.07;;
69894;SDS011;57172;52.034;5.090;2022-10-17T15:55:24;6.37;;;4.23;;
69894;SDS011;57172;52.034;5.090;2022-10-17T15:57:51;9.43;;;4.45;;
69894;SDS011;57172;52.034;5.090;2022-10-17T16:00:20;9.85;;;4.38;;
69894;SDS011;57172;52.034;5.090;2022-10-17T16:02:49;8.15;;;4.15;;
69894;SDS011;57172;52.034;5.090;2022-10-17T16:05:18;7.63;;;3.97;;
69894;SDS011;57172;52.034;5.090;2022-10-17T16:07:51;7.73;;;4.33;;
69894;SDS011;57172;52.034;5.090;2022-10-17T16:10:18;7.80;;;4.05;;
69894;SDS011;57172;52.034;5.090;2022-10-17T16:12:46;9.70;;;4.05;;
69894;SDS011;57172;52.034;5.090;2022-10-17T16:15:20;8.50;;;4.00;;
69894;SDS011;57172;52.034;5.090;2022-10-17T16:17:52;6.88;;;4.00;;
69894;SDS011;57172;52.034;5.090;2022-10-17T16:20:20;6.57;;;3.67;;
69894;SDS011;57172;52.034;5.090;2022-10-17T16:22:48;12.60;;;3.53;;
69894;SDS011;57172;52.034;5.090;2022-10-17T16:25:20;9.68;;;3.75;;
69894;SDS011;57172;52.034;5.090;2022-10-17T16:27:50;9.38;;;4.13;;
69894;SDS011;57172;52.034;5.090;2022-10-17T16:30:19;9.18;;;3.55;;
69894;SDS011;57172;52.034;5.090;2022-10-17T16:32:47;7.00;;;3.90;;
69894;SDS011;57172;52.034;5.090;2022-10-17T16:35:15;7.68;;;3.47;;
69894;SDS011;57172;52.034;5.090;2022-10-17T16:37:50;9.88;;;3.65;;
69894;SDS011;57172;52.034;5.090;2022-10-17T16:40:17;8.02;;;4.22;;
69894;SDS011;57172;52.034;5.090;2022-10-17T16:42:44;8.05;;;4.30;;
69894;SDS011;57172;52.034;5.090;2022-10-17T16:45:18;7.77;;;3.90;;
69894;SDS011;57172;52.034;5.090;2022-10-17T16:47:47;8.68;;;4.55;;
69894;SDS011;57172;52.034;5.090;2022-10-17T16:50:14;7.07;;;4.75;;
69894;SDS011;57172;52.034;5.090;2022-10-17T16:52:41;11.13;;;4.82;;
69894;SDS011;57172;52.034;5.090;2022-10-17T16:55:08;8.52;;;5.03;;
69894;SDS011;57172;52.034;5.090;2022-10-17T16:57:35;7.87;;;5.00;;
69894;SDS011;57172;52.034;5.090;2022-10-17T17:00:05;9.98;;;5.30;;